Time;durP1;ratioP1;P1;durP2;ratioP2;P2;SDS_P1;SDS_P2;PMS_P1;PMS_P2;Temp;Humidity;BMP_temperature;BMP_pressure;BME280_temperature;BME280_humidity;BME280_pressure;Samples;Min_cycle;Max_cycle;Signal;HPM_P1;HPM_P2
2024/02/20 00:01:37;;;;;;;5.55;2.00;;;13.10;91.30;;;;;;5032212;28;20406;-78
2024/02/20 00:04:03;;;;;;;3.60;1.70;;;13.20;91.30;;;;;;5032236;28;20112;-78
2024/02/20 00:06:29;;;;;;;3.53;1.98;;;13.20;91.30;;;;;;5031040;28;20433;-78
2024/02/20 00:08:55;;;;;;;3.63;2.05;;;13.20;91.30;;;;;;5032063;28;20030;-77
2024/02/20 00:11:21;;;;;;;4.07;1.90;;;13.10;91.30;;;;;;5031071;28;20017;-78
2024/02/20 00:13:47;;;;;;;3.47;1.80;;;13.10;91.20;;;;;;5032081;28;20029;-77
2024/02/20 00:16:14;;;;;;;4.13;2.03;;;13.20;91.30;;;;;;5030930;28;20425;-80
2024/02/20 00:18:39;;;;;;;3.00;1.75;;;13.20;91.30;;;;;;5032093;28;20032;-80
2024/02/20 00:21:05;;;;;;;3.85;2.10;;;13.20;91.30;;;;;;5031202;28;20017;-80
2024/02/20 00:23:30;;;;;;;4.05;1.90;;;13.20;91.30;;;;;;5030524;28;20030;-79
2024/02/20 00:25:56;;;;;;;3.60;1.80;;;13.10;91.20;;;;;;5031908;28;20022;-79
2024/02/20 00:28:21;;;;;;;4.50;2.25;;;13.20;91.30;;;;;;5030868;28;20032;-80
2024/02/20 00:30:47;;;;;;;3.35;2.00;;;13.10;91.20;;;;;;5032085;28;20033;-80
2024/02/20 00:33:12;;;;;;;4.07;1.90;;;13.10;91.20;;;;;;5032138;28;20059;-79
2024/02/20 00:35:38;;;;;;;3.45;1.70;;;13.10;91.20;;;;;;5031757;28;20401;-80
2024/02/20 00:38:04;;;;;;;3.63;1.90;;;13.20;91.30;;;;;;5026326;28;20052;-80
2024/02/20 00:40:29;;;;;;;4.28;1.90;;;13.10;91.20;;;;;;5029470;28;20443;-78
2024/02/20 00:42:55;;;;;;;3.53;1.73;;;13.20;91.30;;;;;;5030507;28;20026;-79
2024/02/20 00:45:21;;;;;;;3.17;1.70;;;13.10;91.30;;;;;;5031055;28;20022;-80
2024/02/20 00:47:46;;;;;;;3.47;1.70;;;13.10;91.30;;;;;;5030867;28;20026;-80
2024/02/20 00:50:12;;;;;;;3.95;1.73;;;13.10;91.30;;;;;;5030963;28;20133;-77
2024/02/20 00:52:37;;;;;;;3.53;1.98;;;13.10;91.20;;;;;;5015373;28;20029;-80
2024/02/20 00:55:04;;;;;;;3.47;1.95;;;13.20;91.30;;;;;;5031037;28;20109;-80
2024/02/20 00:57:31;;;;;;;3.47;2.00;;;13.20;91.30;;;;;;5015397;28;20022;-79
2024/02/20 00:59:57;;;;;;;3.40;1.65;;;13.10;91.30;;;;;;5031141;28;20056;-77
2024/02/20 01:02:23;;;;;;;4.05;1.98;;;13.20;91.30;;;;;;5015315;28;20022;-80
2024/02/20 01:04:48;;;;;;;3.47;1.80;;;13.10;91.30;;;;;;5015517;28;20137;-80
2024/02/20 01:07:14;;;;;;;4.03;1.88;;;13.10;91.20;;;;;;5030557;28;20398;-77
2024/02/20 01:09:39;;;;;;;3.95;1.83;;;13.20;91.30;;;;;;5030571;28;20469;-79
2024/02/20 01:12:05;;;;;;;4.35;1.70;;;13.10;91.20;;;;;;5030296;28;20026;-78
2024/02/20 01:14:32;;;;;;;4.43;1.98;;;13.10;91.20;;;;;;5015406;28;20033;-77
2024/02/20 01:16:57;;;;;;;3.22;1.60;;;13.10;91.20;;;;;;5015162;28;20052;-77
2024/02/20 01:19:23;;;;;;;5.47;2.08;;;13.10;91.40;;;;;;5030443;28;20769;-78
2024/02/20 01:21:48;;;;;;;2.38;1.55;;;13.10;91.20;;;;;;5030324;28;20117;-76
2024/02/20 01:24:14;;;;;;;4.35;1.73;;;13.10;91.20;;;;;;5015018;28;20032;-77
2024/02/20 01:26:43;;;;;;;3.95;1.63;;;13.10;91.30;;;;;;5014909;28;20022;-78
2024/02/20 01:29:09;;;;;;;3.88;1.73;;;13.20;91.30;;;;;;5030367;28;20032;-78
2024/02/20 01:31:35;;;;;;;3.72;1.50;;;13.10;91.20;;;;;;5015109;28;20030;-78
2024/02/20 01:34:02;;;;;;;2.55;1.40;;;13.10;91.20;;;;;;5014621;28;20036;-78
2024/02/20 01:36:28;;;;;;;3.53;1.70;;;13.10;91.20;;;;;;5014940;28;20066;-78
2024/02/20 01:38:55;;;;;;;3.45;1.60;;;13.10;91.20;;;;;;5029961;28;20022;-77
2024/02/20 01:41:20;;;;;;;3.38;1.70;;;13.10;91.20;;;;;;5029580;28;20022;-79
2024/02/20 01:43:46;;;;;;;3.30;1.48;;;13.10;91.20;;;;;;5029264;28;20040;-77
2024/02/20 01:46:16;;;;;;;3.70;1.65;;;13.10;91.20;;;;;;5029619;28;20025;-80
2024/02/20 01:48:42;;;;;;;3.58;1.60;;;13.10;91.30;;;;;;5029944;28;20026;-80
2024/02/20 01:51:07;;;;;;;3.25;1.58;;;13.10;91.30;;;;;;5028935;28;20544;-80
2024/02/20 01:53:33;;;;;;;2.75;1.42;;;13.10;91.20;;;;;;5029655;28;20034;-80
2024/02/20 01:56:01;;;;;;;3.25;1.58;;;13.10;91.20;;;;;;5029650;28;20069;-79
2024/02/20 01:58:26;;;;;;;2.95;1.60;;;13.10;91.30;;;;;;5029818;28;20030;-79
2024/02/20 02:00:52;;;;;;;2.70;1.42;;;13.10;91.20;;;;;;5014221;28;20368;-79
2024/02/20 02:03:17;;;;;;;4.35;1.48;;;13.10;91.20;;;;;;5029146;28;20084;-79
2024/02/20 02:05:43;;;;;;;3.58;1.70;;;13.10;91.30;;;;;;5029587;28;20033;-79
2024/02/20 02:08:14;;;;;;;3.60;1.83;;;13.10;91.30;;;;;;5029632;28;20030;-77
2024/02/20 02:10:40;;;;;;;3.85;1.60;;;13.10;91.20;;;;;;5029629;28;20038;-78
2024/02/20 02:13:06;;;;;;;3.42;1.60;;;13.10;91.30;;;;;;5014163;28;20056;-80
2024/02/20 02:15:31;;;;;;;2.53;1.40;;;13.10;91.30;;;;;;5029244;28;20395;-79
2024/02/20 02:17:57;;;;;;;3.13;1.45;;;13.10;91.30;;;;;;5029253;28;20033;-80
2024/02/20 02:20:22;;;;;;;2.35;1.33;;;13.10;91.30;;;;;;5029199;28;20048;-80
2024/02/20 02:22:48;;;;;;;2.90;1.30;;;13.10;91.30;;;;;;5029253;28;20018;-80
2024/02/20 02:25:13;;;;;;;3.47;1.52;;;13.10;91.30;;;;;;5029324;28;20026;-80
2024/02/20 02:27:39;;;;;;;2.75;1.40;;;13.10;91.30;;;;;;5029062;28;20029;-79
2024/02/20 02:30:05;;;;;;;3.08;1.42;;;13.10;91.30;;;;;;5028980;28;20116;-81
2024/02/20 02:32:32;;;;;;;3.53;1.52;;;13.10;91.30;;;;;;5028814;28;20099;-80
2024/02/20 02:34:58;;;;;;;3.40;1.48;;;13.10;91.30;;;;;;5028936;28;20018;-79
2024/02/20 02:37:24;;;;;;;3.17;1.60;;;13.10;91.30;;;;;;5029020;28;20018;-79
2024/02/20 02:39:50;;;;;;;4.13;1.60;;;13.10;91.30;;;;;;5029062;28;20030;-80
2024/02/20 02:42:15;;;;;;;3.35;1.55;;;13.10;91.30;;;;;;5028780;28;20102;-80
2024/02/20 02:44:41;;;;;;;3.30;1.50;;;13.10;91.30;;;;;;5013761;28;20033;-79
2024/02/20 02:47:06;;;;;;;3.10;1.25;;;13.10;91.30;;;;;;5028852;28;20056;-79
2024/02/20 02:49:32;;;;;;;3.17;1.45;;;13.10;91.30;;;;;;5028780;28;20383;-79
2024/02/20 02:51:57;;;;;;;3.42;1.50;;;13.10;91.30;;;;;;5028740;28;20044;-79
2024/02/20 02:54:25;;;;;;;3.90;1.60;;;13.10;91.30;;;;;;5028804;28;20064;-78
2024/02/20 02:56:51;;;;;;;3.83;1.40;;;13.10;91.30;;;;;;5013305;28;20025;-79
2024/02/20 02:59:16;;;;;;;3.70;1.50;;;13.10;91.30;;;;;;5028372;28;20034;-80
2024/02/20 03:01:42;;;;;;;4.55;1.73;;;13.10;91.30;;;;;;5013215;28;20033;-78
2024/02/20 03:04:07;;;;;;;4.70;1.73;;;13.10;91.30;;;;;;5018020;28;20025;-78
2024/02/20 03:06:40;;;;;;;4.10;1.75;;;13.10;91.30;;;;;;5031059;28;20029;-78
2024/02/20 03:09:12;;;;;;;3.63;1.58;;;13.10;91.20;;;;;;5031315;28;20744;-79
2024/02/20 03:11:40;;;;;;;4.25;1.77;;;13.10;91.30;;;;;;5031971;28;20033;-78
2024/02/20 03:14:08;;;;;;;3.28;1.50;;;13.10;91.20;;;;;;5031432;28;20079;-80
2024/02/20 03:16:33;;;;;;;4.57;1.58;;;13.10;91.30;;;;;;5031626;28;20021;-79
2024/02/20 03:19:00;;;;;;;4.50;1.52;;;13.10;91.30;;;;;;5031553;28;20033;-80
2024/02/20 03:21:25;;;;;;;3.72;1.60;;;13.10;91.30;;;;;;5031460;28;20028;-78
2024/02/20 03:23:50;;;;;;;4.50;1.42;;;13.10;91.30;;;;;;5031310;28;20112;-80
2024/02/20 03:26:16;;;;;;;3.22;1.70;;;13.10;91.20;;;;;;5031442;28;20022;-79
2024/02/20 03:28:43;;;;;;;3.67;1.50;;;13.10;91.30;;;;;;5031347;28;20041;-79
2024/02/20 03:31:09;;;;;;;4.57;1.50;;;13.10;91.20;;;;;;5032724;28;20080;-79
2024/02/20 03:33:34;;;;;;;3.55;1.63;;;13.10;91.30;;;;;;5031151;28;20025;-80
2024/02/20 03:36:02;;;;;;;3.97;1.40;;;13.10;91.30;;;;;;5031365;28;20057;-79
2024/02/20 03:38:28;;;;;;;2.60;1.38;;;13.10;91.30;;;;;;5032609;28;20056;-79
2024/02/20 03:40:53;;;;;;;4.63;1.70;;;13.00;91.20;;;;;;5031377;28;20025;-78
2024/02/20 03:43:19;;;;;;;5.65;1.95;;;13.10;91.30;;;;;;5032354;28;20487;-79
2024/02/20 03:45:44;;;;;;;4.40;1.50;;;13.10;91.30;;;;;;5031369;28;20667;-79
2024/02/20 03:48:10;;;;;;;3.85;1.50;;;13.10;91.30;;;;;;5031389;28;20056;-79
2024/02/20 03:50:35;;;;;;;4.38;1.63;;;13.00;91.20;;;;;;5031325;28;20037;-79
2024/02/20 03:53:02;;;;;;;4.90;1.70;;;13.10;91.30;;;;;;5031044;28;20105;-79
2024/02/20 03:55:27;;;;;;;4.18;1.58;;;13.00;91.20;;;;;;5031059;28;20037;-79
2024/02/20 03:57:53;;;;;;;3.53;1.52;;;13.10;91.30;;;;;;5030596;28;20030;-79
2024/02/20 04:00:23;;;;;;;3.17;1.40;;;13.10;91.30;;;;;;5032169;28;20021;-79
2024/02/20 04:02:49;;;;;;;4.45;1.70;;;13.10;91.30;;;;;;5030980;28;20116;-79
2024/02/20 04:05:15;;;;;;;3.88;1.52;;;13.10;91.30;;;;;;5032741;28;20119;-79
2024/02/20 04:07:41;;;;;;;3.42;1.50;;;13.10;91.30;;;;;;5032312;28;20021;-79
2024/02/20 04:10:08;;;;;;;5.13;1.63;;;13.10;91.30;;;;;;5030914;28;20149;-79
2024/02/20 04:12:33;;;;;;;3.78;1.60;;;13.10;91.30;;;;;;5030844;28;20025;-79
2024/02/20 04:14:59;;;;;;;4.38;1.50;;;13.10;91.30;;;;;;5032384;28;20025;-79
2024/02/20 04:17:24;;;;;;;3.50;1.27;;;13.00;91.20;;;;;;5034798;28;20084;-78
2024/02/20 04:19:50;;;;;;;3.25;1.50;;;13.10;91.30;;;;;;5036331;28;20363;-78
2024/02/20 04:22:15;;;;;;;4.35;1.60;;;13.10;91.30;;;;;;5035420;28;20104;-78
2024/02/20 04:24:41;;;;;;;4.07;1.58;;;13.10;91.30;;;;;;5040764;28;20033;-80
2024/02/20 04:27:06;;;;;;;4.30;1.70;;;13.10;91.30;;;;;;5034423;28;20060;-79
2024/02/20 04:29:32;;;;;;;3.90;1.45;;;13.10;91.30;;;;;;5030308;28;20030;-79
2024/02/20 04:31:57;;;;;;;3.42;1.30;;;13.10;91.30;;;;;;5031666;28;20060;-79
2024/02/20 04:34:23;;;;;;;4.03;1.50;;;13.10;91.30;;;;;;5036012;28;20039;-81
2024/02/20 04:36:49;;;;;;;4.00;1.40;;;13.10;91.30;;;;;;5036319;28;20465;-80
2024/02/20 04:39:15;;;;;;;4.95;1.50;;;13.10;91.30;;;;;;5034205;28;20036;-79
2024/02/20 04:41:40;;;;;;;3.75;1.38;;;13.10;91.30;;;;;;5035922;28;20026;-81
2024/02/20 04:44:06;;;;;;;3.30;1.60;;;13.10;91.30;;;;;;5035101;28;20470;-81
2024/02/20 04:46:31;;;;;;;3.97;1.60;;;13.10;91.30;;;;;;5034838;28;20053;-82
2024/02/20 04:48:57;;;;;;;3.47;1.27;;;13.10;91.30;;;;;;5033518;28;20106;-81
2024/02/20 04:51:22;;;;;;;4.95;1.73;;;13.10;91.30;;;;;;5035268;28;20142;-79
2024/02/20 04:53:48;;;;;;;3.90;1.40;;;13.10;91.30;;;;;;5040575;28;20036;-81
2024/02/20 04:56:13;;;;;;;3.63;1.40;;;13.10;91.30;;;;;;5037789;28;20044;-81
2024/02/20 04:58:39;;;;;;;4.35;1.70;;;13.00;91.20;;;;;;5035027;28;20418;-80
2024/02/20 05:01:04;;;;;;;3.67;1.60;;;13.10;91.30;;;;;;5032221;28;20056;-79
2024/02/20 05:03:30;;;;;;;5.43;1.60;;;13.10;91.30;;;;;;5030521;28;20026;-79
2024/02/20 05:05:55;;;;;;;3.83;1.50;;;13.10;91.30;;;;;;5031208;28;20022;-78
2024/02/20 05:08:21;;;;;;;3.47;1.50;;;13.10;91.50;;;;;;5030647;28;20025;-80
2024/02/20 05:10:46;;;;;;;4.10;1.80;;;13.10;91.30;;;;;;5031549;28;20036;-78
2024/02/20 05:13:12;;;;;;;3.75;1.52;;;13.10;91.30;;;;;;5032632;28;20026;-81
2024/02/20 05:15:38;;;;;;;3.78;1.50;;;13.00;91.20;;;;;;5031955;28;20049;-78
2024/02/20 05:18:06;;;;;;;4.65;1.50;;;13.10;91.30;;;;;;5033456;28;20079;-79
2024/02/20 05:20:32;;;;;;;4.55;1.40;;;13.10;91.30;;;;;;5036888;28;20428;-79
2024/02/20 05:22:57;;;;;;;4.88;1.50;;;13.00;91.20;;;;;;5031399;28;20108;-81
2024/02/20 05:25:23;;;;;;;4.03;1.42;;;13.10;91.30;;;;;;5030327;28;20333;-79
2024/02/20 05:27:48;;;;;;;5.10;1.42;;;13.00;91.20;;;;;;5031059;28;20417;-81
2024/02/20 05:30:14;;;;;;;3.63;1.38;;;13.10;91.30;;;;;;5032371;28;20074;-81
2024/02/20 05:32:39;;;;;;;4.55;1.58;;;13.10;91.30;;;;;;5031328;28;20030;-79
2024/02/20 05:35:06;;;;;;;4.25;1.55;;;13.10;91.30;;;;;;5030583;28;20094;-78
2024/02/20 05:37:31;;;;;;;3.03;1.38;;;13.00;91.30;;;;;;5031329;28;20033;-79
2024/02/20 05:39:57;;;;;;;4.55;1.40;;;13.10;91.30;;;;;;5030632;28;20557;-77
2024/02/20 05:42:22;;;;;;;4.72;1.50;;;13.10;91.30;;;;;;5030956;28;20053;-80
2024/02/20 05:44:48;;;;;;;5.50;1.48;;;13.10;91.30;;;;;;5030805;28;20026;-80
2024/02/20 05:47:13;;;;;;;3.63;1.30;;;13.10;91.30;;;;;;5030564;28;20108;-81
2024/02/20 05:49:40;;;;;;;5.05;1.50;;;13.00;91.30;;;;;;5030467;28;20025;-80
2024/02/20 05:52:06;;;;;;;3.80;1.40;;;13.10;91.30;;;;;;5030572;28;20036;-79
2024/02/20 05:54:33;;;;;;;5.07;1.63;;;13.00;91.30;;;;;;5030132;28;20410;-79
2024/02/20 05:56:58;;;;;;;3.65;1.30;;;13.10;91.30;;;;;;5031537;28;20536;-79
2024/02/20 05:59:24;;;;;;;5.97;1.73;;;13.00;91.30;;;;;;5032604;28;20037;-78
2024/02/20 06:01:50;;;;;;;5.10;1.80;;;13.00;91.30;;;;;;5033989;28;20099;-80
2024/02/20 06:04:16;;;;;;;4.93;1.90;;;13.00;91.30;;;;;;5030698;28;20780;-81
2024/02/20 06:06:42;;;;;;;4.88;1.48;;;13.00;91.30;;;;;;5031230;28;20477;-81
2024/02/20 06:09:08;;;;;;;3.33;1.50;;;13.00;91.30;;;;;;5029972;28;20041;-79
2024/02/20 06:11:34;;;;;;;3.80;1.20;;;13.00;91.30;;;;;;5030843;28;20024;-77
2024/02/20 06:14:02;;;;;;;4.03;1.27;;;13.00;91.30;;;;;;5029993;28;20060;-79
2024/02/20 06:16:28;;;;;;;4.80;1.40;;;13.00;91.30;;;;;;5029925;28;20025;-78
2024/02/20 06:18:53;;;;;;;4.13;1.33;;;13.00;91.30;;;;;;5029852;28;20029;-80
2024/02/20 06:21:20;;;;;;;4.97;1.70;;;13.00;91.30;;;;;;5030105;28;20022;-80
2024/02/20 06:23:46;;;;;;;5.13;2.03;;;13.00;91.30;;;;;;5030541;28;20025;-77
2024/02/20 06:26:11;;;;;;;5.75;1.70;;;13.00;91.30;;;;;;5029559;28;20026;-78
2024/02/20 06:28:37;;;;;;;3.88;1.30;;;13.00;91.30;;;;;;5029891;28;20118;-80
2024/02/20 06:31:06;;;;;;;4.95;1.42;;;13.00;91.30;;;;;;5030207;28;20035;-79
2024/02/20 06:33:32;;;;;;;3.90;1.60;;;13.00;91.30;;;;;;5029425;28;20030;-79
2024/02/20 06:35:58;;;;;;;4.00;1.38;;;13.00;91.30;;;;;;5030364;28;20399;-81
2024/02/20 06:38:32;;;;;;;4.53;1.42;;;13.00;91.30;;;;;;5028884;28;20032;-79
2024/02/20 06:41:01;;;;;;;4.80;1.35;;;13.00;91.30;;;;;;5030207;28;20026;-81
2024/02/20 06:43:26;;;;;;;4.78;1.60;;;13.00;91.30;;;;;;5030022;28;20120;-80
2024/02/20 06:45:56;;;;;;;5.82;1.77;;;13.00;91.30;;;;;;5030016;28;20112;-80
2024/02/20 06:48:21;;;;;;;4.30;1.30;;;13.00;91.30;;;;;;5029594;28;20021;-77
2024/02/20 06:50:47;;;;;;;3.67;1.30;;;13.00;91.30;;;;;;5027944;28;20520;-79
2024/02/20 06:53:12;;;;;;;5.47;1.77;;;13.00;91.30;;;;;;5027724;28;20458;-78
2024/02/20 06:55:38;;;;;;;4.70;1.45;;;13.00;91.30;;;;;;5028011;28;20025;-79
2024/02/20 06:58:03;;;;;;;5.75;1.63;;;13.10;91.30;;;;;;5027792;28;20124;-78
2024/02/20 07:00:29;;;;;;;3.55;1.30;;;13.00;91.30;;;;;;5029484;28;20021;-78
2024/02/20 07:02:54;;;;;;;5.30;1.48;;;13.00;91.30;;;;;;5027260;28;20022;-76
2024/02/20 07:05:20;;;;;;;3.47;1.45;;;13.00;91.30;;;;;;5028470;28;20393;-79
2024/02/20 07:07:46;;;;;;;4.75;1.30;;;13.00;91.20;;;;;;5027256;28;20025;-79
2024/02/20 07:10:11;;;;;;;4.00;1.75;;;13.00;91.20;;;;;;5029378;28;20048;-78
2024/02/20 07:12:37;;;;;;;4.40;1.30;;;13.00;91.20;;;;;;5028291;28;20030;-80
2024/02/20 07:15:04;;;;;;;4.95;1.50;;;13.00;91.30;;;;;;5034370;28;20037;-81
2024/02/20 07:17:30;;;;;;;6.35;1.60;;;13.00;91.30;;;;;;5033746;28;20088;-79
2024/02/20 07:19:56;;;;;;;3.60;1.30;;;13.00;91.30;;;;;;5032148;28;20030;-80
2024/02/20 07:22:21;;;;;;;3.55;1.45;;;13.00;91.20;;;;;;5027148;28;20392;-78
2024/02/20 07:24:47;;;;;;;4.72;1.40;;;13.00;91.20;;;;;;5027526;28;20129;-77
2024/02/20 07:27:13;;;;;;;4.97;1.80;;;13.00;91.20;;;;;;5027239;28;20032;-79
2024/02/20 07:29:42;;;;;;;3.65;1.40;;;13.00;91.20;;;;;;5027427;28;20077;-80
2024/02/20 07:32:11;;;;;;;3.47;1.35;;;13.10;91.30;;;;;;5027525;28;20529;-80
2024/02/20 07:34:40;;;;;;;4.38;1.23;;;13.00;91.20;;;;;;5027395;28;20510;-80
2024/02/20 07:37:06;;;;;;;4.97;1.50;;;13.00;91.20;;;;;;5027185;28;20018;-80
2024/02/20 07:39:32;;;;;;;4.47;1.30;;;13.00;91.20;;;;;;5027956;28;20056;-79
2024/02/20 07:41:57;;;;;;;3.92;1.30;;;13.00;91.20;;;;;;5029678;28;20100;-82
2024/02/20 07:44:23;;;;;;;4.63;1.40;;;13.00;91.20;;;;;;5031285;28;20017;-81
2024/02/20 07:46:49;;;;;;;4.28;1.40;;;13.10;91.20;;;;;;5031007;28;20022;-78
2024/02/20 07:49:14;;;;;;;4.75;1.58;;;13.00;91.20;;;;;;5031822;28;20544;-80
2024/02/20 07:51:40;;;;;;;4.38;1.58;;;13.00;91.20;;;;;;5035292;28;20029;-79
2024/02/20 07:54:05;;;;;;;4.50;1.30;;;13.00;91.20;;;;;;5035034;28;20398;-80
2024/02/20 07:56:31;;;;;;;4.03;1.30;;;13.00;91.20;;;;;;5035254;28;20033;-80
2024/02/20 07:58:57;;;;;;;4.65;1.48;;;13.00;91.20;;;;;;5036097;28;20080;-80
2024/02/20 08:01:24;;;;;;;4.32;1.50;;;13.00;91.20;;;;;;5036137;28;20823;-80
2024/02/20 08:03:52;;;;;;;4.00;1.27;;;13.10;91.20;;;;;;5034919;28;20417;-80
2024/02/20 08:06:22;;;;;;;3.47;1.30;;;13.00;91.20;;;;;;5036564;28;20029;-80
2024/02/20 08:08:49;;;;;;;3.00;1.33;;;13.00;91.20;;;;;;5036456;28;20437;-80
2024/02/20 08:11:14;;;;;;;4.85;1.33;;;13.10;91.20;;;;;;5035128;28;20034;-80
2024/02/20 08:13:45;;;;;;;4.57;1.50;;;13.10;91.20;;;;;;5034782;28;20079;-80
2024/02/20 08:16:11;;;;;;;4.68;1.35;;;13.00;91.10;;;;;;5035996;28;20033;-80
2024/02/20 08:18:39;;;;;;;3.35;1.33;;;13.10;91.10;;;;;;5036296;28;20029;-80
2024/02/20 08:21:04;;;;;;;4.75;1.45;;;13.10;91.10;;;;;;5034932;28;20025;-79
2024/02/20 08:23:30;;;;;;;4.53;1.60;;;13.10;91.10;;;;;;5034563;28;20013;-80
2024/02/20 08:25:55;;;;;;;5.07;1.50;;;13.10;91.10;;;;;;5034656;28;20548;-80
2024/02/20 08:28:21;;;;;;;4.38;1.40;;;13.10;91.10;;;;;;5034736;28;20017;-80
2024/02/20 08:30:46;;;;;;;4.28;1.30;;;13.10;91.10;;;;;;5034545;28;20022;-80
2024/02/20 08:33:12;;;;;;;5.13;1.40;;;13.10;91.10;;;;;;5034580;28;20029;-81
2024/02/20 08:35:37;;;;;;;4.10;1.42;;;13.10;91.00;;;;;;5034548;28;20029;-81
2024/02/20 08:38:03;;;;;;;5.40;1.52;;;13.10;91.10;;;;;;5034448;28;20057;-80
2024/02/20 08:40:28;;;;;;;4.00;1.77;;;13.00;91.00;;;;;;5034465;28;20028;-80
2024/02/20 08:42:54;;;;;;;8.50;1.42;;;13.10;91.00;;;;;;5034066;28;20026;-80
2024/02/20 08:45:19;;;;;;;24.63;3.15;;;13.00;91.00;;;;;;5034314;28;20022;-80
2024/02/20 08:47:45;;;;;;;19.65;2.97;;;13.00;90.70;;;;;;5035356;28;20080;-80
2024/02/20 08:50:11;;;;;;;22.25;3.35;;;13.00;90.50;;;;;;5033859;28;20124;-79
2024/02/20 08:52:36;;;;;;;12.75;2.20;;;13.00;90.50;;;;;;5034059;28;20021;-80
2024/02/20 08:55:03;;;;;;;15.48;3.20;;;13.00;90.70;;;;;;5034242;28;20029;-79
2024/02/20 08:57:29;;;;;;;19.75;2.88;;;13.00;90.70;;;;;;5035262;28;20018;-80
2024/02/20 08:59:54;;;;;;;16.35;2.70;;;13.00;90.60;;;;;;5034630;28;20040;-80
2024/02/20 09:02:20;;;;;;;15.98;2.92;;;13.00;90.60;;;;;;5034837;28;20021;-80
2024/02/20 09:04:45;;;;;;;15.07;2.58;;;13.00;90.60;;;;;;5034070;28;20025;-80
2024/02/20 09:07:11;;;;;;;10.60;2.83;;;13.10;90.60;;;;;;5034016;28;20520;-79
2024/02/20 09:09:37;;;;;;;11.32;2.70;;;13.00;90.50;;;;;;5033771;28;20029;-79
2024/02/20 09:12:02;;;;;;;14.75;2.72;;;13.10;90.60;;;;;;5033695;28;20029;-80
2024/02/20 09:14:28;;;;;;;12.63;2.65;;;13.00;90.60;;;;;;5035233;28;20062;-81
2024/02/20 09:16:53;;;;;;;14.23;2.95;;;13.10;90.60;;;;;;5033662;28;20440;-79
2024/02/20 09:19:19;;;;;;;8.25;2.15;;;13.10;90.60;;;;;;5033800;28;20030;-80
2024/02/20 09:21:47;;;;;;;10.50;3.38;;;13.10;90.60;;;;;;5033660;28;20060;-80
2024/02/20 09:24:12;;;;;;;12.60;2.67;;;13.10;90.60;;;;;;5035043;28;20026;-79
2024/02/20 09:26:38;;;;;;;9.23;2.88;;;13.10;90.60;;;;;;5033634;28;20540;-80
2024/02/20 09:29:03;;;;;;;12.60;2.60;;;13.00;90.60;;;;;;5034899;28;20028;-80
2024/02/20 09:31:29;;;;;;;11.68;2.78;;;13.10;90.70;;;;;;5034717;28;20056;-80
2024/02/20 09:33:55;;;;;;;9.75;2.63;;;13.10;90.70;;;;;;5033510;28;20029;-80
2024/02/20 09:36:21;;;;;;;10.93;2.67;;;13.10;90.70;;;;;;5034685;28;20060;-80
2024/02/20 09:38:46;;;;;;;13.82;2.85;;;13.10;90.70;;;;;;5033226;28;20064;-80
2024/02/20 09:41:25;;;;;;;7.68;2.45;;;13.10;90.70;;;;;;5033296;28;20048;-80
2024/02/20 09:43:52;;;;;;;9.15;2.15;;;13.10;90.70;;;;;;5033216;28;20045;-81
2024/02/20 09:46:20;;;;;;;10.35;2.42;;;13.10;90.80;;;;;;5049838;28;20030;-79
2024/02/20 09:48:49;;;;;;;8.43;2.38;;;13.10;90.70;;;;;;5034473;28;20045;-81
2024/02/20 09:51:19;;;;;;;12.80;3.22;;;13.10;90.80;;;;;;5034409;28;20025;-80
2024/02/20 09:53:44;;;;;;;8.88;2.42;;;13.10;90.70;;;;;;5032906;28;20033;-79
2024/02/20 09:56:12;;;;;;;7.85;2.22;;;13.10;90.70;;;;;;5034328;28;20025;-79
2024/02/20 09:58:38;;;;;;;9.52;2.17;;;13.10;90.70;;;;;;5032764;28;20052;-80
2024/02/20 10:01:04;;;;;;;10.75;2.40;;;13.00;90.70;;;;;;5034056;28;20026;-79
2024/02/20 10:03:32;;;;;;;9.82;3.08;;;13.10;90.70;;;;;;5032280;28;20120;-79
2024/02/20 10:05:58;;;;;;;9.07;2.67;;;13.10;90.80;;;;;;5032566;28;20148;-80
2024/02/20 10:08:26;;;;;;;8.90;2.30;;;13.10;90.80;;;;;;5033794;28;20036;-80
2024/02/20 10:10:52;;;;;;;8.05;2.38;;;13.10;90.80;;;;;;5032880;28;20029;-80
2024/02/20 10:13:19;;;;;;;7.93;2.25;;;13.10;90.70;;;;;;5031571;28;20132;-80
2024/02/20 10:15:48;;;;;;;10.10;2.45;;;13.10;90.80;;;;;;5032623;28;20026;-80
2024/02/20 10:18:17;;;;;;;8.75;2.38;;;13.10;90.70;;;;;;5032378;28;20482;-80
2024/02/20 10:20:42;;;;;;;9.32;2.67;;;13.10;90.70;;;;;;5032411;28;20026;-80
2024/02/20 10:23:09;;;;;;;8.40;2.20;;;13.10;90.70;;;;;;5032267;28;20038;-80
2024/02/20 10:25:36;;;;;;;9.20;2.60;;;13.10;90.70;;;;;;5032499;28;20029;-80
2024/02/20 10:28:05;;;;;;;9.40;2.40;;;13.10;90.70;;;;;;5032417;28;20053;-80
2024/02/20 10:30:31;;;;;;;7.50;2.40;;;13.10;90.70;;;;;;5032430;28;20018;-79
2024/02/20 10:32:57;;;;;;;9.18;2.90;;;13.20;90.70;;;;;;5049044;28;20089;-80
2024/02/20 10:35:23;;;;;;;7.60;2.30;;;13.20;90.70;;;;;;5033544;28;20021;-80
2024/02/20 10:38:02;;;;;;;8.10;2.50;;;13.20;90.70;;;;;;5032131;28;20574;-80
2024/02/20 10:40:29;;;;;;;8.45;2.50;;;13.20;90.70;;;;;;5032339;28;20030;-80
2024/02/20 10:42:57;;;;;;;5.82;2.35;;;13.20;90.70;;;;;;5048584;28;20025;-80
2024/02/20 10:45:27;;;;;;;7.88;2.22;;;13.20;90.70;;;;;;5033542;28;20463;-80
2024/02/20 10:47:55;;;;;;;5.68;2.10;;;13.20;90.70;;;;;;5031995;28;20033;-80
2024/02/20 10:50:21;;;;;;;7.72;2.10;;;13.20;90.70;;;;;;5031927;28;20159;-80
2024/02/20 10:52:48;;;;;;;7.57;2.33;;;13.20;90.70;;;;;;5031845;28;20045;-80
2024/02/20 10:55:14;;;;;;;8.55;2.30;;;13.20;90.70;;;;;;5031940;28;20114;-81
2024/02/20 10:57:42;;;;;;;6.47;2.00;;;13.20;90.70;;;;;;5032044;28;20022;-79
2024/02/20 11:00:09;;;;;;;6.63;2.55;;;13.20;90.70;;;;;;5031602;28;20038;-80
2024/02/20 11:02:38;;;;;;;5.95;2.13;;;13.10;90.70;;;;;;5033002;28;20017;-80
2024/02/20 11:05:06;;;;;;;7.13;2.15;;;13.20;90.70;;;;;;5032219;28;20056;-79
2024/02/20 11:07:32;;;;;;;8.70;2.33;;;13.20;90.70;;;;;;5031844;28;20459;-80
2024/02/20 11:10:08;;;;;;;9.52;2.85;;;13.20;90.70;;;;;;5031833;28;20069;-80
2024/02/20 11:12:34;;;;;;;6.47;2.17;;;13.20;90.70;;;;;;5032751;28;20034;-79
2024/02/20 11:15:10;;;;;;;6.85;2.25;;;13.20;90.70;;;;;;5031779;28;20032;-80
2024/02/20 11:17:39;;;;;;;7.80;2.50;;;13.20;90.70;;;;;;5031416;28;20048;-80
2024/02/20 11:20:31;;;;;;;8.57;2.90;;;13.20;90.60;;;;;;5032785;28;20052;-79
2024/02/20 11:23:08;;;;;;;10.20;2.28;;;13.20;90.60;;;;;;5026771;28;20034;-79
2024/02/20 11:25:34;;;;;;;7.43;2.40;;;13.20;90.60;;;;;;5031500;28;20022;-80
2024/02/20 11:28:11;;;;;;;5.60;2.15;;;13.30;90.60;;;;;;5031580;28;20037;-80
2024/02/20 11:30:39;;;;;;;8.52;2.35;;;13.30;90.60;;;;;;5032657;28;20021;-80
2024/02/20 11:33:18;;;;;;;7.03;2.10;;;13.30;90.60;;;;;;5031210;28;20025;-80
2024/02/20 11:35:45;;;;;;;9.05;2.35;;;13.20;90.60;;;;;;5032840;28;20026;-82
2024/02/20 11:38:12;;;;;;;9.57;2.53;;;13.20;90.60;;;;;;5031399;28;20017;-81
2024/02/20 11:40:38;;;;;;;7.35;2.38;;;13.20;90.60;;;;;;5031058;28;20030;-81
2024/02/20 11:43:06;;;;;;;9.00;2.65;;;13.20;90.60;;;;;;5031989;28;20048;-80
2024/02/20 11:45:34;;;;;;;6.35;2.40;;;13.20;90.60;;;;;;5032029;28;20026;-79
2024/02/20 11:48:08;;;;;;;7.10;2.78;;;13.20;90.60;;;;;;5029134;28;20457;-78
2024/02/20 11:50:40;;;;;;;6.13;2.20;;;13.20;90.70;;;;;;5039249;28;20031;-78
2024/02/20 11:53:11;;;;;;;6.95;2.38;;;13.20;90.70;;;;;;5051792;28;20074;-79
2024/02/20 11:55:40;;;;;;;7.68;2.17;;;13.20;90.70;;;;;;5050692;28;20025;-79
2024/02/20 11:58:06;;;;;;;6.90;2.38;;;13.20;90.70;;;;;;5050688;28;20025;-78
2024/02/20 12:00:33;;;;;;;6.97;2.22;;;13.20;90.60;;;;;;5050561;28;20111;-77
2024/02/20 12:03:03;;;;;;;7.75;2.67;;;13.20;90.60;;;;;;5050709;28;20029;-77
2024/02/20 12:05:30;;;;;;;6.70;2.35;;;13.20;90.60;;;;;;5052248;28;20501;-77
2024/02/20 12:07:56;;;;;;;7.97;2.60;;;13.10;90.60;;;;;;5052101;28;20078;-78
2024/02/20 12:10:24;;;;;;;10.73;3.42;;;13.20;90.60;;;;;;5050846;28;20029;-76
2024/02/20 12:12:51;;;;;;;11.10;3.47;;;13.10;90.60;;;;;;5050914;28;20481;-77
2024/02/20 12:15:17;;;;;;;13.98;4.25;;;13.20;90.40;;;;;;5050713;28;20124;-78
2024/02/20 12:17:45;;;;;;;14.23;5.20;;;13.10;90.20;;;;;;5050763;28;20029;-77
2024/02/20 12:20:12;;;;;;;18.77;6.00;;;13.10;90.00;;;;;;5051896;28;20083;-77
2024/02/20 12:22:42;;;;;;;16.65;6.43;;;13.10;89.80;;;;;;5050408;28;20041;-78
2024/02/20 12:25:10;;;;;;;18.02;7.10;;;13.10;89.60;;;;;;5050718;28;20021;-77
2024/02/20 12:27:36;;;;;;;15.52;7.55;;;13.10;89.50;;;;;;5050578;28;20021;-78
2024/02/20 12:30:06;;;;;;;15.80;7.03;;;13.10;89.30;;;;;;5052036;28;20366;-78
2024/02/20 12:32:32;;;;;;;16.52;6.80;;;13.10;89.20;;;;;;5050604;28;20090;-78
2024/02/20 12:34:58;;;;;;;15.32;6.82;;;13.10;89.20;;;;;;5051000;28;20040;-77
2024/02/20 12:37:28;;;;;;;16.77;7.80;;;13.10;89.10;;;;;;5055625;28;20033;-78
2024/02/20 12:39:53;;;;;;;18.05;7.57;;;13.10;89.10;;;;;;5055694;28;20583;-77
2024/02/20 12:42:19;;;;;;;17.85;8.25;;;13.10;89.00;;;;;;5054184;28;20071;-77